Time;durP1;ratioP1;P1;durP2;ratioP2;P2;SDS_P1;SDS_P2;PMS_P1;PMS_P2;Temp;Humidity;BMP_temperature;BMP_pressure;BME280_temperature;BME280_humidity;BME280_pressure;Samples;Min_cycle;Max_cycle;Signal;HPM_P1;HPM_P2
2022/11/23 00:02:04;;;;;;;17.70;6.85;;;;;;;7.61;100.00;99457.94;5070458;28;20035;-60
2022/11/23 00:04:30;;;;;;;14.60;6.57;;;;;;;7.60;100.00;99455.44;5111866;27;20039;-60
2022/11/23 00:06:58;;;;;;;13.77;6.18;;;;;;;7.62;100.00;99454.38;5090499;28;20036;-60
2022/11/23 00:09:23;;;;;;;14.30;5.90;;;;;;;7.63;100.00;99455.22;5074135;28;20112;-60
2022/11/23 00:11:49;;;;;;;15.65;5.75;;;;;;;7.62;100.00;99462.31;5071621;28;20107;-60
2022/11/23 00:14:16;;;;;;;15.32;5.88;;;;;;;7.59;100.00;99461.66;5074548;28;20052;-60
2022/11/23 00:16:42;;;;;;;10.63;5.30;;;;;;;7.62;100.00;99458.81;5071384;28;20498;-60
2022/11/23 00:19:10;;;;;;;14.73;5.97;;;;;;;7.63;100.00;99463.16;5071556;28;20064;-60
2022/11/23 00:21:36;;;;;;;17.52;6.43;;;;;;;7.63;100.00;99463.97;5070586;28;20032;-60
2022/11/23 00:24:03;;;;;;;15.75;5.82;;;;;;;7.62;100.00;99467.59;5079373;28;20073;-60
2022/11/23 00:26:29;;;;;;;17.15;6.13;;;;;;;7.64;100.00;99470.13;5108866;28;20484;-60
2022/11/23 00:28:59;;;;;;;18.80;5.75;;;;;;;7.64;100.00;99472.75;5071982;28;20107;-60
2022/11/23 00:31:25;;;;;;;15.77;5.78;;;;;;;7.59;100.00;99454.59;5070152;28;20032;-60
2022/11/23 00:33:52;;;;;;;15.45;5.68;;;;;;;7.65;100.00;99470.03;5071445;28;20025;-60
2022/11/23 00:36:19;;;;;;;17.33;5.97;;;;;;;7.66;100.00;99486.72;5095033;28;20077;-60
2022/11/23 00:38:45;;;;;;;19.85;5.82;;;;;;;7.67;100.00;99481.31;5075348;28;20388;-60
2022/11/23 00:41:13;;;;;;;18.63;5.57;;;;;;;7.67;100.00;99486.59;5074676;28;20036;-60
2022/11/23 00:43:39;;;;;;;19.85;5.80;;;;;;;7.69;100.00;99473.28;5082923;28;20088;-60
2022/11/23 00:46:13;;;;;;;17.58;5.88;;;;;;;7.70;100.00;99485.53;5116092;28;20031;-60
2022/11/23 00:48:39;;;;;;;15.63;5.75;;;;;;;7.69;100.00;99486.50;5116482;28;20031;-61
2022/11/23 00:51:08;;;;;;;17.20;6.25;;;;;;;7.67;100.00;99475.19;5111087;28;20088;-60
2022/11/23 00:53:35;;;;;;;13.35;5.30;;;;;;;7.63;100.00;99474.56;5111894;27;20036;-60
2022/11/23 00:56:03;;;;;;;13.57;5.00;;;;;;;7.69;100.00;99483.88;5098541;28;20441;-60
2022/11/23 00:58:28;;;;;;;13.25;5.50;;;;;;;7.68;100.00;99485.66;5094016;28;20458;-60
2022/11/23 01:01:23;;;;;;;12.82;5.65;;;;;;;7.70;100.00;99490.84;5094951;28;20037;-60
2022/11/23 01:03:51;;;;;;;14.30;5.22;;;;;;;7.67;100.00;99485.75;5094257;28;20086;-60
2022/11/23 01:06:23;;;;;;;14.80;5.38;;;;;;;7.70;100.00;99490.84;5094592;28;20463;-60
2022/11/23 01:08:50;;;;;;;13.23;5.53;;;;;;;7.70;100.00;99485.53;5095053;28;20118;-60
2022/11/23 01:11:15;;;;;;;14.98;5.35;;;;;;;7.70;100.00;99488.19;5093737;28;20502;-60
2022/11/23 01:13:42;;;;;;;12.10;4.88;;;;;;;7.71;100.00;99482.78;5095930;28;20024;-60
2022/11/23 01:16:20;;;;;;;12.77;5.10;;;;;;;7.72;100.00;99494.22;5075362;28;20475;-60
2022/11/23 01:18:46;;;;;;;14.75;5.32;;;;;;;7.71;100.00;99485.44;5074466;28;20029;-59
2022/11/23 01:21:11;;;;;;;14.60;5.78;;;;;;;7.71;100.00;99496.03;5081201;28;20035;-60
2022/11/23 01:23:37;;;;;;;13.18;5.20;;;;;;;7.72;100.00;99492.41;5085997;28;20471;-60
2022/11/23 01:26:10;;;;;;;17.10;4.85;;;;;;;7.73;100.00;99491.47;5074030;28;20028;-60
2022/11/23 01:28:37;;;;;;;13.98;5.65;;;;;;;7.73;100.00;99498.53;5073424;28;20035;-60
2022/11/23 01:31:11;;;;;;;11.63;4.97;;;;;;;7.74;100.00;99492.31;5077540;28;20113;-60
2022/11/23 01:33:40;;;;;;;13.65;5.43;;;;;;;7.74;100.00;99501.09;5108508;28;20038;-60
2022/11/23 01:36:14;;;;;;;15.88;5.97;;;;;;;7.76;100.00;99503.63;5115274;28;20355;-60
2022/11/23 01:38:42;;;;;;;13.32;5.13;;;;;;;7.77;100.00;99499.19;5115189;28;20024;-60
2022/11/23 01:41:12;;;;;;;14.40;5.22;;;;;;;7.76;100.00;99508.06;5105514;28;20479;-60
2022/11/23 01:43:38;;;;;;;12.60;5.28;;;;;;;7.77;100.00;99507.13;5094836;28;20108;-60
2022/11/23 01:46:04;;;;;;;15.70;5.47;;;;;;;7.78;100.00;99527.34;5077854;28;20507;-60
2022/11/23 01:48:35;;;;;;;17.13;5.22;;;;;;;7.78;100.00;99514.94;5073659;28;20060;-60
2022/11/23 01:51:14;;;;;;;11.23;4.60;;;;;;;7.79;100.00;99521.91;5112794;28;20474;-60
2022/11/23 01:53:41;;;;;;;11.82;4.70;;;;;;;7.77;100.00;99515.06;5114715;28;20032;-60
2022/11/23 01:56:10;;;;;;;12.07;4.60;;;;;;;7.78;100.00;99514.94;5114149;28;20041;-60
2022/11/23 01:58:42;;;;;;;12.40;4.85;;;;;;;7.78;100.00;99514.94;5114727;28;20027;-60
2022/11/23 02:01:08;;;;;;;15.18;4.72;;;;;;;7.80;100.00;99515.69;5112835;28;20034;-60
2022/11/23 02:03:36;;;;;;;13.00;4.90;;;;;;;7.77;100.00;99505.31;5090501;28;20025;-60
2022/11/23 02:06:10;;;;;;;16.55;5.00;;;;;;;7.81;100.00;99519.16;5125852;27;20492;-60
2022/11/23 02:08:36;;;;;;;14.35;4.90;;;;;;;7.80;100.00;99523.63;5080146;28;20029;-60
2022/11/23 02:11:02;;;;;;;16.40;4.97;;;;;;;7.77;100.00;99513.25;5086564;28;20024;-60
2022/11/23 02:13:28;;;;;;;11.10;4.75;;;;;;;7.82;99.87;99526.97;5093791;28;20028;-60
2022/11/23 02:15:58;;;;;;;15.82;5.25;;;;;;;7.84;99.33;99526.88;5093577;28;20467;-60
2022/11/23 02:18:27;;;;;;;12.70;4.97;;;;;;;7.82;99.08;99524.34;5093845;28;20028;-60
2022/11/23 02:20:55;;;;;;;12.80;4.82;;;;;;;7.76;99.23;99508.06;5110143;28;20036;-60
2022/11/23 02:23:37;;;;;;;13.43;4.82;;;;;;;7.85;99.24;99524.13;5103423;28;20059;-59
2022/11/23 02:26:10;;;;;;;14.57;5.45;;;;;;;7.80;99.16;99517.50;5100421;28;20394;-60
2022/11/23 02:28:43;;;;;;;12.00;4.88;;;;;;;7.84;98.91;99519.78;5073679;28;20057;-60
2022/11/23 02:31:09;;;;;;;12.95;4.88;;;;;;;7.86;98.97;99530.28;5090621;28;20035;-59
2022/11/23 02:33:39;;;;;;;18.15;5.18;;;;;;;7.86;99.62;99533.75;5091742;28;20024;-59
2022/11/23 02:36:50;;;;;;;12.98;5.03;;;;;;;7.88;99.08;99538.94;5081350;28;20025;-59
2022/11/23 02:39:34;;;;;;;19.85;6.00;;;;;;;8.03;98.90;99543.13;5065050;28;20140;-60
2022/11/23 02:42:00;;;;;;;17.30;5.63;;;;;;;7.87;99.15;99543.38;5112935;28;20559;-60
2022/11/23 02:44:49;;;;;;;17.05;6.13;;;;;;;7.86;99.62;99533.75;5112499;28;20015;-59
2022/11/23 02:47:15;;;;;;;;;;;;;;;7.91;99.59;99538.69;5108846;28;20482;-59
2022/11/23 02:49:42;;;;;;;15.57;5.80;;;;;;;7.86;99.18;99554.94;5136444;27;19957;-59
2022/11/23 02:52:08;;;;;;;15.68;5.38;;;;;;;7.85;99.64;99553.25;5093055;28;20016;-59
2022/11/23 02:54:34;;;;;;;11.73;5.38;;;;;;;7.85;99.49;99539.16;5093324;28;20173;-59
2022/11/23 02:56:59;;;;;;;13.73;5.93;;;;;;;7.79;100.00;99535.16;5086682;28;20534;-59
2022/11/23 02:59:25;;;;;;;16.13;4.82;;;;;;;7.83;100.00;99543.72;5070506;28;20024;-59
2022/11/23 03:01:50;;;;;;;14.70;5.10;;;;;;;7.80;100.00;99541.31;5111380;28;20028;-59
2022/11/23 03:04:16;;;;;;;15.20;4.82;;;;;;;7.85;100.00;99547.97;5113189;28;20020;-59
2022/11/23 03:06:42;;;;;;;17.80;5.65;;;;;;;7.79;100.00;99540.44;5111874;28;20043;-59
2022/11/23 03:09:08;;;;;;;13.60;4.97;;;;;;;7.77;100.00;99545.03;5107584;28;20024;-59
2022/11/23 03:11:34;;;;;;;17.00;5.97;;;;;;;7.78;100.00;99551.16;5091774;28;20149;-59
2022/11/23 03:14:02;;;;;;;14.68;5.35;;;;;;;7.70;100.00;99541.94;5091458;28;20122;-60
2022/11/23 03:16:28;;;;;;;17.38;5.30;;;;;;;7.79;100.00;99550.19;5098610;28;20020;-60
2022/11/23 03:18:55;;;;;;;13.38;5.22;;;;;;;7.77;100.00;99550.31;5106965;28;20081;-60
2022/11/23 03:21:20;;;;;;;15.10;5.63;;;;;;;7.77;99.82;99552.97;5092346;28;20382;-60
2022/11/23 03:23:48;;;;;;;15.27;5.45;;;;;;;7.77;99.79;99552.13;5092477;28;20012;-60
2022/11/23 03:26:13;;;;;;;16.48;6.07;;;;;;;7.73;99.75;99552.34;5126011;27;20359;-60
2022/11/23 03:28:39;;;;;;;18.20;5.18;;;;;;;7.74;99.81;99548.72;5092675;28;20034;-60
2022/11/23 03:31:06;;;;;;;17.08;5.50;;;;;;;7.72;99.85;99548.00;5091098;28;20471;-60
2022/11/23 03:33:32;;;;;;;17.67;6.05;;;;;;;7.73;99.24;99548.81;5091447;28;20028;-60
2022/11/23 03:35:58;;;;;;;15.80;5.25;;;;;;;7.73;99.15;99543.53;5092174;28;20332;-60
2022/11/23 03:38:23;;;;;;;15.73;5.60;;;;;;;7.74;98.99;99551.38;5073258;28;20483;-60
2022/11/23 03:40:49;;;;;;;19.13;6.15;;;;;;;7.74;98.74;99539.94;5091979;28;20038;-60
2022/11/23 03:43:15;;;;;;;13.73;5.45;;;;;;;7.77;98.17;99550.31;5089577;28;20035;-60
2022/11/23 03:45:41;;;;;;;15.13;5.30;;;;;;;7.69;98.51;99536.78;5107169;27;20059;-60
2022/11/23 03:48:06;;;;;;;17.92;6.18;;;;;;;7.75;97.79;99546.94;5091182;28;20359;-60
2022/11/23 03:50:32;;;;;;;12.63;5.30;;;;;;;7.73;97.66;99548.81;5092000;28;20059;-60
2022/11/23 03:52:58;;;;;;;13.98;5.53;;;;;;;7.77;97.65;99539.72;5092045;28;20108;-60
2022/11/23 03:55:24;;;;;;;17.33;5.85;;;;;;;7.73;97.54;99547.06;5099386;28;20107;-60
2022/11/23 03:57:50;;;;;;;19.35;5.78;;;;;;;7.73;97.47;99540.88;5082231;28;20025;-60
2022/11/23 04:00:16;;;;;;;20.05;5.30;;;;;;;7.77;97.79;99557.41;5070781;28;20028;-60
2022/11/23 04:02:42;;;;;;;14.98;5.72;;;;;;;7.67;97.28;99534.22;5070226;28;20044;-60
2022/11/23 04:05:08;;;;;;;13.68;5.32;;;;;;;7.75;97.31;99544.28;5084732;28;20067;-60
2022/11/23 04:07:34;;;;;;;15.57;4.85;;;;;;;7.73;97.10;99559.41;5071381;28;20056;-60
2022/11/23 04:09:59;;;;;;;17.20;5.70;;;;;;;7.77;97.12;99557.41;5071528;28;20095;-60
2022/11/23 04:12:25;;;;;;;14.95;5.47;;;;;;;7.76;97.15;99553.91;5070323;28;20647;-60
2022/11/23 04:14:50;;;;;;;18.42;5.97;;;;;;;7.74;97.94;99553.19;5091565;28;20032;-60
2022/11/23 04:17:16;;;;;;;16.98;5.32;;;;;;;7.77;96.57;99560.91;5096124;28;20054;-60
2022/11/23 04:19:41;;;;;;;17.15;5.15;;;;;;;7.77;96.41;99558.25;5111939;28;20044;-60
2022/11/23 04:22:07;;;;;;;18.27;5.43;;;;;;;7.79;95.96;99560.78;5088320;28;20372;-60
2022/11/23 04:24:32;;;;;;;14.98;5.68;;;;;;;7.78;95.82;99552.00;5091449;28;20021;-60
2022/11/23 04:27:00;;;;;;;12.68;5.13;;;;;;;7.82;95.84;99558.75;5073063;28;20254;-60
2022/11/23 04:29:25;;;;;;;13.93;4.57;;;;;;;7.80;95.06;99546.59;5091175;28;20457;-60
2022/11/23 04:31:51;;;;;;;23.10;6.15;;;;;;;7.80;94.62;99543.97;5091705;28;20131;-60
2022/11/23 04:34:17;;;;;;;22.55;6.18;;;;;;;7.78;94.88;99548.50;5107046;28;20028;-60
2022/11/23 04:36:44;;;;;;;17.30;5.43;;;;;;;7.71;93.93;99530.44;5105277;28;20059;-60
2022/11/23 04:39:11;;;;;;;20.00;5.60;;;;;;;7.76;94.21;99556.53;5091652;28;20421;-60
2022/11/23 04:41:37;;;;;;;16.42;4.88;;;;;;;7.80;93.84;99550.09;5091326;28;20020;-60
2022/11/23 04:44:03;;;;;;;19.52;5.32;;;;;;;7.78;93.54;99552.00;5099670;28;20069;-60
2022/11/23 04:46:29;;;;;;;20.83;5.57;;;;;;;7.73;93.87;99552.34;5111918;28;20390;-60
2022/11/23 04:48:54;;;;;;;17.40;5.78;;;;;;;7.72;93.44;99555.09;5111767;28;20023;-60
2022/11/23 04:51:20;;;;;;;20.05;6.20;;;;;;;7.69;93.60;99557.97;5124344;27;20051;-60
2022/11/23 04:53:48;;;;;;;18.58;5.55;;;;;;;7.67;93.41;99565.16;5110506;28;20032;-60
2022/11/23 04:56:16;;;;;;;22.95;5.97;;;;;;;7.62;93.30;99565.50;5111452;28;20028;-60
2022/11/23 04:58:41;;;;;;;20.80;5.38;;;;;;;7.57;93.46;99551.75;5111351;28;20032;-60
2022/11/23 05:01:07;;;;;;;21.25;5.78;;;;;;;7.53;93.82;99558.22;5110017;28;20371;-60
2022/11/23 05:03:33;;;;;;;19.25;6.00;;;;;;;7.44;93.55;99550.91;5099336;28;20433;-60
2022/11/23 05:06:01;;;;;;;17.27;6.47;;;;;;;7.44;93.94;99559.72;5091183;28;20073;-61
2022/11/23 05:08:26;;;;;;;25.17;6.13;;;;;;;7.44;93.78;99548.25;5091381;28;20035;-60
2022/11/23 05:10:52;;;;;;;16.25;6.57;;;;;;;7.41;93.75;99549.34;5091296;28;20023;-60
2022/11/23 05:13:20;;;;;;;21.23;5.90;;;;;;;7.37;93.94;99547.03;5081514;28;20484;-60
2022/11/23 05:15:47;;;;;;;17.33;6.60;;;;;;;7.34;93.87;99542.78;5070614;28;20028;-60
2022/11/23 05:18:13;;;;;;;14.63;5.65;;;;;;;7.35;93.97;99544.47;5069781;28;20028;-61
2022/11/23 05:20:39;;;;;;;22.60;6.72;;;;;;;7.38;93.91;99546.94;5082951;28;20059;-60
2022/11/23 05:23:05;;;;;;;22.25;6.13;;;;;;;7.34;93.64;99544.59;5074103;28;20032;-60
2022/11/23 05:25:31;;;;;;;20.98;5.70;;;;;;;7.31;93.76;99537.72;5093899;28;20032;-60
2022/11/23 05:27:56;;;;;;;21.50;6.30;;;;;;;7.31;93.64;99545.66;5094565;28;20052;-60
2022/11/23 05:30:24;;;;;;;20.08;6.20;;;;;;;7.32;93.81;99546.50;5094642;28;20036;-60
2022/11/23 05:32:50;;;;;;;17.75;6.88;;;;;;;7.30;93.66;99540.50;5093433;28;20024;-60
2022/11/23 05:35:18;;;;;;;19.98;5.80;;;;;;;7.30;93.83;99543.13;5076586;28;20059;-60
2022/11/23 05:37:43;;;;;;;26.98;7.13;;;;;;;7.30;93.91;99551.91;5075479;28;20740;-60
2022/11/23 05:40:10;;;;;;;20.30;6.57;;;;;;;7.29;93.56;99547.56;5110633;28;20030;-60
2022/11/23 05:42:36;;;;;;;13.95;6.40;;;;;;;7.27;93.61;99542.38;5091647;28;20028;-60
2022/11/23 05:45:01;;;;;;;26.05;6.80;;;;;;;7.27;93.36;99549.47;5074126;28;20494;-60
2022/11/23 05:47:27;;;;;;;22.42;6.80;;;;;;;7.27;93.36;99555.59;5074718;28;20034;-60
2022/11/23 05:49:52;;;;;;;22.77;7.57;;;;;;;7.28;94.01;99553.81;5105162;28;20039;-60
2022/11/23 05:52:17;;;;;;;23.05;6.32;;;;;;;7.22;93.88;99555.06;5073282;28;20033;-60
2022/11/23 05:54:43;;;;;;;18.30;6.47;;;;;;;7.25;93.61;99551.38;5093529;28;20032;-60
2022/11/23 05:57:09;;;;;;;17.63;6.25;;;;;;;7.24;93.67;99560.28;5094644;28;20027;-60
2022/11/23 05:59:34;;;;;;;18.52;6.78;;;;;;;7.27;92.92;99562.69;5093064;28;20044;-60
2022/11/23 06:02:02;;;;;;;26.60;7.22;;;;;;;7.26;92.95;99563.63;5093949;28;20394;-60
2022/11/23 06:04:27;;;;;;;22.52;6.60;;;;;;;7.26;92.56;99555.69;5076399;28;20493;-60
2022/11/23 06:06:59;;;;;;;20.75;6.05;;;;;;;7.26;92.89;99556.56;5085211;28;20131;-60
2022/11/23 06:09:28;;;;;;;27.08;7.18;;;;;;;7.25;93.10;99548.72;5092948;28;20036;-60
2022/11/23 06:11:54;;;;;;;23.75;7.28;;;;;;;7.27;93.07;99554.78;5092050;28;20032;-60
2022/11/23 06:14:22;;;;;;;23.38;6.63;;;;;;;7.26;93.54;99553.94;5093789;28;20452;-60
2022/11/23 06:16:49;;;;;;;22.52;6.72;;;;;;;7.25;93.05;99552.22;5093889;28;20024;-60
2022/11/23 06:19:14;;;;;;;18.23;6.03;;;;;;;7.31;93.01;99564.16;5089420;28;20051;-60
2022/11/23 06:21:40;;;;;;;26.67;7.25;;;;;;;7.31;92.97;99565.97;5092637;28;20031;-60
2022/11/23 06:24:05;;;;;;;23.75;6.13;;;;;;;7.32;92.95;99573.78;5088075;28;20116;-60
2022/11/23 06:26:31;;;;;;;24.05;7.07;;;;;;;7.33;92.97;99566.72;5073298;28;20487;-60
2022/11/23 06:28:59;;;;;;;25.88;6.57;;;;;;;7.31;93.91;99569.47;5077873;28;20063;-60
2022/11/23 06:31:24;;;;;;;21.95;6.50;;;;;;;7.29;94.28;99566.06;5092361;28;20032;-60
2022/11/23 06:33:51;;;;;;;32.40;8.13;;;;;;;7.27;94.57;99560.06;5092098;28;20386;-60
2022/11/23 06:36:16;;;;;;;22.05;6.60;;;;;;;7.24;94.75;99566.41;5093557;28;20032;-60
2022/11/23 06:38:42;;;;;;;27.08;7.38;;;;;;;7.24;94.88;99565.56;5093520;28;20036;-60
2022/11/23 06:41:08;;;;;;;19.33;6.45;;;;;;;7.22;95.03;99560.38;5087831;28;20055;-60
2022/11/23 06:43:33;;;;;;;24.40;6.70;;;;;;;7.26;94.58;99563.63;5086972;28;20024;-60
2022/11/23 06:46:03;;;;;;;19.73;7.00;;;;;;;7.25;94.94;99575.19;5092108;28;20538;-60
2022/11/23 06:48:28;;;;;;;22.05;6.22;;;;;;;7.25;94.60;99570.72;5095868;28;20032;-60
2022/11/23 06:50:56;;;;;;;23.10;5.95;;;;;;;7.23;94.39;99572.63;5075872;28;20051;-60
2022/11/23 06:53:21;;;;;;;20.10;5.95;;;;;;;7.22;94.37;99568.31;5104785;28;20108;-60
2022/11/23 06:55:46;;;;;;;22.33;6.35;;;;;;;7.23;94.22;99579.72;5072314;28;20579;-60
2022/11/23 06:58:12;;;;;;;19.20;6.82;;;;;;;7.21;94.06;99579.84;5117426;27;20035;-59
2022/11/23 07:00:37;;;;;;;18.38;5.65;;;;;;;7.19;93.50;99580.91;5091819;28;20055;-59
2022/11/23 07:03:02;;;;;;;24.65;6.80;;;;;;;7.19;93.74;99589.66;5093070;28;20058;-59
2022/11/23 07:05:28;;;;;;;21.17;6.88;;;;;;;7.19;93.46;99597.59;5091017;28;20403;-59
2022/11/23 07:07:53;;;;;;;22.42;5.90;;;;;;;7.19;93.20;99596.75;5092533;28;20119;-59
2022/11/23 07:10:19;;;;;;;17.77;6.82;;;;;;;7.14;93.43;99599.72;5074109;28;20394;-59
2022/11/23 07:12:45;;;;;;;21.73;6.65;;;;;;;7.14;93.20;99605.00;5091896;28;20028;-59
2022/11/23 07:15:12;;;;;;;20.98;6.95;;;;;;;7.14;92.73;99607.63;5072811;28;20029;-59
2022/11/23 07:17:41;;;;;;;17.23;6.18;;;;;;;7.12;92.71;99611.34;5070671;28;20028;-59
2022/11/23 07:20:11;;;;;;;19.73;7.40;;;;;;;7.09;92.44;99616.84;5134780;27;20101;-59
2022/11/23 07:22:36;;;;;;;;;;;;;;;7.15;93.07;99616.44;5108366;28;20356;-59
2022/11/23 07:25:03;;;;;;;19.70;5.88;;;;;;;7.06;92.20;99620.56;5081192;28;19920;-60
2022/11/23 07:27:30;;;;;;;25.63;6.53;;;;;;;7.03;91.96;99626.06;5095175;28;20032;-59
2022/11/23 07:29:56;;;;;;;20.05;6.20;;;;;;;6.98;92.20;99626.34;5091482;28;20471;-59
2022/11/23 07:32:21;;;;;;;17.45;5.80;;;;;;;6.94;92.22;99627.53;5091766;28;20035;-60
2022/11/23 07:34:47;;;;;;;20.15;6.85;;;;;;;6.89;92.44;99629.63;5125197;27;20117;-59
2022/11/23 07:37:13;;;;;;;25.73;6.80;;;;;;;6.86;92.38;99634.28;5090954;28;20051;-60
2022/11/23 07:39:39;;;;;;;17.48;6.03;;;;;;;6.87;92.58;99641.25;5092739;28;20067;-60
2022/11/23 07:42:09;;;;;;;20.52;5.85;;;;;;;6.83;92.39;99632.69;5091807;28;20028;-60
2022/11/23 07:44:37;;;;;;;22.27;6.00;;;;;;;6.82;92.12;99634.50;5091232;28;20016;-60
2022/11/23 07:47:03;;;;;;;21.60;6.60;;;;;;;6.87;92.21;99641.25;5090339;28;20058;-60
2022/11/23 07:49:28;;;;;;;19.17;5.72;;;;;;;6.84;91.56;99652.88;5090780;28;20059;-60
2022/11/23 07:51:55;;;;;;;20.92;6.35;;;;;;;6.84;91.43;99658.16;5096941;28;20039;-60
2022/11/23 07:54:20;;;;;;;21.38;5.97;;;;;;;6.82;91.41;99660.03;5069611;28;20032;-60
2022/11/23 07:56:46;;;;;;;17.45;6.15;;;;;;;6.82;91.48;99663.56;5071443;28;20336;-60
2022/11/23 07:59:11;;;;;;;18.55;6.60;;;;;;;6.82;91.35;99658.28;5071929;28;20100;-59
2022/11/23 08:01:37;;;;;;;23.08;6.63;;;;;;;6.83;90.90;99659.13;5074459;28;20552;-60
2022/11/23 08:04:03;;;;;;;19.00;6.05;;;;;;;6.83;90.51;99662.59;5111190;28;20027;-60
2022/11/23 08:06:29;;;;;;;21.27;6.32;;;;;;;6.83;90.58;99667.88;5095457;28;20384;-60
2022/11/23 08:08:54;;;;;;;17.98;6.50;;;;;;;6.82;90.39;99668.84;5091498;28;20092;-60
2022/11/23 08:11:21;;;;;;;18.17;6.90;;;;;;;6.85;90.28;99664.28;5088700;28;20132;-60
2022/11/23 08:13:46;;;;;;;18.90;5.50;;;;;;;6.82;90.33;99660.03;5076829;28;20017;-60
2022/11/23 08:16:14;;;;;;;21.42;6.05;;;;;;;6.83;90.20;99665.25;5084804;28;20039;-59
2022/11/23 08:18:39;;;;;;;22.13;6.38;;;;;;;6.89;89.75;99666.63;5054617;28;20032;-60
2022/11/23 08:21:05;;;;;;;21.83;6.68;;;;;;;6.89;89.82;99664.00;5078184;28;20063;-60
2022/11/23 08:23:31;;;;;;;19.42;6.25;;;;;;;6.91;89.30;99655.94;5086507;28;20454;-60
2022/11/23 08:25:56;;;;;;;19.10;6.38;;;;;;;6.92;89.03;99669.06;5124638;27;20560;-60
2022/11/23 08:28:22;;;;;;;17.13;5.40;;;;;;;6.91;89.39;99667.38;5089829;28;20050;-59
2022/11/23 08:30:48;;;;;;;19.15;6.10;;;;;;;6.92;89.55;99665.59;5091157;28;20081;-60
2022/11/23 08:33:13;;;;;;;19.23;5.93;;;;;;;6.98;88.72;99667.81;5091951;28;20078;-60
2022/11/23 08:35:40;;;;;;;22.25;5.88;;;;;;;6.99;88.89;99667.69;5098895;28;20039;-60
2022/11/23 08:38:07;;;;;;;17.90;5.93;;;;;;;7.02;88.78;99672.78;5089752;28;20020;-60
2022/11/23 08:40:33;;;;;;;16.80;6.70;;;;;;;7.02;89.16;99664.00;5074886;28;20032;-60
2022/11/23 08:42:58;;;;;;;14.25;5.32;;;;;;;7.08;88.22;99670.66;5089770;28;20111;-60
2022/11/23 08:45:24;;;;;;;14.80;6.05;;;;;;;7.10;88.19;99677.56;5090720;28;20107;-60
2022/11/23 08:47:49;;;;;;;15.68;5.18;;;;;;;7.09;88.01;99675.00;5091039;28;20028;-60
2022/11/23 08:50:16;;;;;;;16.40;5.93;;;;;;;7.14;87.36;99680.84;5093437;28;20032;-60
2022/11/23 08:52:42;;;;;;;17.23;5.50;;;;;;;7.17;86.67;99675.34;5083889;28;20483;-60
2022/11/23 08:55:08;;;;;;;16.83;6.10;;;;;;;7.17;86.53;99670.88;5077798;28;20027;-59
2022/11/23 08:57:33;;;;;;;19.35;5.85;;;;;;;7.22;87.38;99682.00;5089254;28;20028;-60
2022/11/23 08:59:59;;;;;;;18.50;6.03;;;;;;;7.26;86.62;99664.13;5097309;28;20102;-60
2022/11/23 09:02:25;;;;;;;20.98;6.30;;;;;;;7.26;86.23;99662.34;5091825;28;20030;-60
2022/11/23 09:04:51;;;;;;;20.08;6.47;;;;;;;7.32;86.33;99662.84;5092770;28;20016;-60
2022/11/23 09:07:17;;;;;;;17.70;5.85;;;;;;;7.38;85.67;99670.38;5094331;28;20115;-60
2022/11/23 09:09:42;;;;;;;17.48;6.00;;;;;;;7.38;86.04;99659.78;5092443;28;20020;-60
2022/11/23 09:12:08;;;;;;;16.15;5.10;;;;;;;7.40;85.96;99652.59;5093648;28;20034;-60
2022/11/23 09:14:33;;;;;;;17.17;6.15;;;;;;;7.43;85.64;99652.41;5093815;28;20028;-60
2022/11/23 09:17:02;;;;;;;15.95;5.20;;;;;;;7.45;84.71;99658.44;5092909;28;20045;-60
2022/11/23 09:19:28;;;;;;;18.73;5.55;;;;;;;7.47;84.56;99657.38;5100489;28;20601;-59
2022/11/23 09:21:53;;;;;;;20.23;6.38;;;;;;;7.54;84.55;99659.59;5096249;28;20040;-60
2022/11/23 09:24:19;;;;;;;22.15;6.38;;;;;;;7.56;83.86;99662.97;5097313;28;20012;-60
2022/11/23 09:26:47;;;;;;;15.27;5.93;;;;;;;7.62;83.52;99651.97;5088678;28;20081;-60
2022/11/23 09:29:13;;;;;;;17.02;5.25;;;;;;;7.63;83.58;99659.78;5091963;28;20471;-60
2022/11/23 09:31:39;;;;;;;15.65;5.05;;;;;;;7.62;82.59;99652.81;5092156;28;20095;-60
2022/11/23 09:34:05;;;;;;;18.20;6.10;;;;;;;7.65;82.54;99647.31;5093980;28;20032;-60
2022/11/23 09:36:30;;;;;;;16.50;5.10;;;;;;;7.68;82.86;99646.25;5091160;28;20035;-60
2022/11/23 09:38:59;;;;;;;13.07;5.05;;;;;;;7.72;82.40;99648.56;5072018;28;20030;-60
2022/11/23 09:41:45;;;;;;;18.95;4.95;;;;;;;7.75;83.42;99628.97;5080715;28;20059;-60
2022/11/23 09:44:17;;;;;;;20.48;6.05;;;;;;;7.88;82.53;99626.28;5087273;28;20028;-60
2022/11/23 09:46:45;;;;;;;18.63;5.00;;;;;;;7.97;82.19;99625.63;5087926;28;20027;-60
2022/11/23 09:49:18;;;;;;;13.88;4.68;;;;;;;8.07;81.99;99633.75;5112260;27;20036;-60
2022/11/23 09:51:47;;;;;;;13.63;4.65;;;;;;;8.20;80.76;99618.66;5110573;28;20031;-60
2022/11/23 09:54:35;;;;;;;13.05;5.10;;;;;;;8.37;80.03;99607.69;5094743;28;20024;-60
2022/11/23 09:57:03;;;;;;;16.45;5.35;;;;;;;8.55;79.13;99602.00;5093337;28;20356;-60
2022/11/23 09:59:29;;;;;;;10.70;4.80;;;;;;;8.63;77.60;99618.19;5094199;27;20024;-60
2022/11/23 10:01:56;;;;;;;15.48;4.88;;;;;;;8.80;77.02;99608.97;5093317;28;20156;-60
2022/11/23 10:04:22;;;;;;;13.13;4.60;;;;;;;8.92;76.60;99601.88;5094478;28;20799;-60
2022/11/23 10:07:11;;;;;;;12.65;4.43;;;;;;;9.07;77.65;99598.91;5093434;28;20055;-60
2022/11/23 10:09:56;;;;;;;11.70;3.93;;;;;;;9.10;76.60;99576.59;5092925;28;20027;-60
2022/11/23 10:12:58;;;;;;;12.52;4.88;;;;;;;9.28;75.54;99588.44;5092732;28;20069;-60
2022/11/23 10:15:38;;;;;;;13.75;4.35;;;;;;;9.53;74.52;99589.19;5104637;28;20071;-60
2022/11/23 10:18:40;;;;;;;10.00;3.80;;;;;;;9.75;73.46;99586.47;5088516;28;20032;-60
2022/11/23 10:21:41;;;;;;;14.35;4.55;;;;;;;10.08;73.68;99591.84;5105208;28;20135;-60
2022/11/23 10:24:18;;;;;;;8.25;3.47;;;;;;;10.50;71.17;99587.53;5078160;28;20084;-60
2022/11/23 10:26:46;;;;;;;9.75;3.47;;;;;;;10.95;69.46;99595.28;5095172;28;20020;-61
2022/11/23 10:29:15;;;;;;;11.68;3.25;;;;;;;11.22;66.85;99583.25;5092792;28;20035;-60
2022/11/23 10:31:45;;;;;;;9.88;3.35;;;;;;;11.44;66.44;99598.19;5092596;28;20205;-60
2022/11/23 10:34:14;;;;;;;10.23;3.70;;;;;;;11.55;65.84;99593.63;5093402;28;20026;-61
2022/11/23 10:36:43;;;;;;;8.55;3.42;;;;;;;11.91;64.50;99590.53;5094595;28;20019;-61
2022/11/23 10:39:26;;;;;;;9.88;3.63;;;;;;;12.26;65.08;99590.03;5092146;28;20483;-60
2022/11/23 10:41:53;;;;;;;11.35;3.03;;;;;;;12.33;63.04;99577.88;5091447;28;20032;-61
2022/11/23 10:44:27;;;;;;;11.65;3.10;;;;;;;12.54;61.52;99587.56;5093493;28;20663;-60
2022/11/23 10:46:52;;;;;;;13.35;3.38;;;;;;;12.62;61.49;99585.88;5094155;28;20024;-61
2022/11/23 10:49:18;;;;;;;12.25;3.47;;;;;;;12.17;61.08;99566.88;5095640;28;20118;-60
2022/11/23 10:51:54;;;;;;;13.30;3.10;;;;;;;11.72;63.56;99584.16;5102933;28;20037;-60
2022/11/23 10:54:31;;;;;;;10.43;3.28;;;;;;;11.20;65.79;99571.88;5092959;28;20500;-60
2022/11/23 10:57:00;;;;;;;10.98;3.20;;;;;;;10.85;66.20;99581.91;5099702;28;20134;-60
2022/11/23 10:59:36;;;;;;;7.82;3.28;;;;;;;10.99;67.34;99571.91;5113495;28;20038;-60
2022/11/23 11:02:14;;;;;;;10.48;3.28;;;;;;;11.19;68.43;99559.56;5095616;28;20020;-60
2022/11/23 11:04:39;;;;;;;14.05;4.03;;;;;;;10.96;66.49;99561.53;5091803;28;20470;-60
2022/11/23 11:07:21;;;;;;;8.43;3.08;;;;;;;11.40;66.93;99554.19;5099721;28;20038;-60
2022/11/23 11:10:05;;;;;;;8.57;2.95;;;;;;;11.77;65.80;99554.47;5094537;28;20023;-60
2022/11/23 11:12:49;;;;;;;7.53;2.90;;;;;;;11.60;63.90;99543.47;5079182;28;20119;-61
2022/11/23 11:15:15;;;;;;;13.30;3.58;;;;;;;11.44;63.87;99550.25;5097945;28;20039;-59
2022/11/23 11:17:42;;;;;;;12.55;3.10;;;;;;;11.04;64.90;99549.25;5092202;28;20560;-60
2022/11/23 11:20:26;;;;;;;8.35;3.17;;;;;;;10.73;66.80;99545.69;5104232;28;20056;-60
2022/11/23 11:22:53;;;;;;;14.05;3.25;;;;;;;10.42;67.32;99555.41;5093937;28;20106;-60
2022/11/23 11:25:31;;;;;;;8.55;3.10;;;;;;;10.20;69.17;99541.19;5093695;28;20024;-60
2022/11/23 11:27:58;;;;;;;9.07;3.38;;;;;;;10.18;68.53;99540.50;5101633;28;20054;-60
2022/11/23 11:30:27;;;;;;;7.53;3.08;;;;;;;10.43;67.91;99533.19;5090293;28;20026;-60
2022/11/23 11:33:10;;;;;;;12.07;3.10;;;;;;;11.00;67.44;99521.25;5090775;28;20502;-60
2022/11/23 11:35:39;;;;;;;8.73;2.75;;;;;;;11.57;64.66;99517.09;5089866;28;20165;-60
2022/11/23 11:38:28;;;;;;;9.93;3.33;;;;;;;11.86;63.88;99519.03;5102316;28;20020;-61